sensor_id;sensor_type;location;lat;lon;timestamp;pressure;altitude;pressure_sealevel;temperature;humidity
54122;BME280;40029;58.708;50.190;2022-12-10T00:00:33;100921.94;;;-3.40;43.36
54122;BME280;40029;58.708;50.190;2022-12-10T00:03:04;100856.59;;;-3.84;43.40
54122;BME280;40029;58.708;50.190;2022-12-10T00:05:35;100893.28;;;-3.57;43.38
54122;BME280;40029;58.708;50.190;2022-12-10T00:08:06;100895.84;;;-3.57;43.07
54122;BME280;40029;58.708;50.190;2022-12-10T00:10:40;100883.00;;;-3.82;43.02
54122;BME280;40029;58.708;50.190;2022-12-10T00:13:11;100891.59;;;-4.01;43.27
54122;BME280;40029;58.708;50.190;2022-12-10T00:15:42;100892.78;;;-4.14;43.24
54122;BME280;40029;58.708;50.190;2022-12-10T00:18:13;100910.28;;;-4.21;43.69
54122;BME280;40029;58.708;50.190;2022-12-10T00:20:44;100886.00;;;-4.57;43.84
54122;BME280;40029;58.708;50.190;2022-12-10T00:23:15;100912.53;;;-4.29;44.11
54122;BME280;40029;58.708;50.190;2022-12-10T00:25:46;100906.47;;;-4.12;44.30
54122;BME280;40029;58.708;50.190;2022-12-10T00:28:17;100908.75;;;-4.18;43.75
54122;BME280;40029;58.708;50.190;2022-12-10T00:30:48;100913.63;;;-4.02;43.58
54122;BME280;40029;58.708;50.190;2022-12-10T00:33:19;100874.81;;;-4.18;43.76
54122;BME280;40029;58.708;50.190;2022-12-10T00:35:50;100925.47;;;-3.81;43.60
54122;BME280;40029;58.708;50.190;2022-12-10T00:38:21;100930.50;;;-4.04;43.74
54122;BME280;40029;58.708;50.190;2022-12-10T00:40:52;100901.03;;;-3.98;43.98
54122;BME280;40029;58.708;50.190;2022-12-10T00:43:23;100898.84;;;-3.89;43.64
54122;BME280;40029;58.708;50.190;2022-12-10T00:45:55;100882.66;;;-3.69;43.42
54122;BME280;40029;58.708;50.190;2022-12-10T00:48:26;100878.50;;;-3.65;43.29
54122;BME280;40029;58.708;50.190;2022-12-10T00:51:18;100893.50;;;-3.50;43.11
54122;BME280;40029;58.708;50.190;2022-12-10T00:53:52;100899.66;;;-3.68;43.13
54122;BME280;40029;58.708;50.190;2022-12-10T00:56:26;100894.97;;;-3.80;43.23
54122;BME280;40029;58.708;50.190;2022-12-10T00:58:58;100883.75;;;-3.85;44.18
54122;BME280;40029;58.708;50.190;2022-12-10T01:01:40;100883.03;;;-3.81;43.45
54122;BME280;40029;58.708;50.190;2022-12-10T01:04:15;100887.56;;;-3.73;43.28
54122;BME280;40029;58.708;50.190;2022-12-10T01:06:50;100882.66;;;-3.69;43.51
54122;BME280;40029;58.708;50.190;2022-12-10T01:09:24;100885.19;;;-3.69;43.37
54122;BME280;40029;58.708;50.190;2022-12-10T01:12:01;100874.47;;;-3.83;43.14
54122;BME280;40029;58.708;50.190;2022-12-10T01:14:33;100887.84;;;-3.88;43.56
54122;BME280;40029;58.708;50.190;2022-12-10T01:17:04;100877.19;;;-3.78;44.00
54122;BME280;40029;58.708;50.190;2022-12-10T01:19:36;100868.31;;;-3.65;43.69
54122;BME280;40029;58.708;50.190;2022-12-10T01:22:07;100864.13;;;-3.65;43.65
54122;BME280;40029;58.708;50.190;2022-12-10T01:24:40;100864.00;;;-3.68;43.64
54122;BME280;40029;58.708;50.190;2022-12-10T01:27:11;100858.44;;;-3.80;43.18
54122;BME280;40029;58.708;50.190;2022-12-10T01:29:42;100855.94;;;-3.79;43.26
54122;BME280;40029;58.708;50.190;2022-12-10T01:32:13;100850.09;;;-3.76;43.70
54122;BME280;40029;58.708;50.190;2022-12-10T01:34:44;100850.31;;;-3.70;43.66
54122;BME280;40029;58.708;50.190;2022-12-10T01:37:16;100841.28;;;-3.62;43.66
54122;BME280;40029;58.708;50.190;2022-12-10T01:39:47;100836.28;;;-3.60;43.16
54122;BME280;40029;58.708;50.190;2022-12-10T01:42:18;100837.75;;;-3.65;43.30
54122;BME280;40029;58.708;50.190;2022-12-10T01:44:58;100827.94;;;-3.56;43.25
54122;BME280;40029;58.708;50.190;2022-12-10T01:47:34;100832.78;;;-3.62;43.62
54122;BME280;40029;58.708;50.190;2022-12-10T01:50:07;100830.84;;;-3.69;43.25
54122;BME280;40029;58.708;50.190;2022-12-10T01:52:41;100828.31;;;-3.69;44.14
54122;BME280;40029;58.708;50.190;2022-12-10T01:55:49;100821.84;;;-3.60;43.77
54122;BME280;40029;58.708;50.190;2022-12-10T01:58:21;100753.59;;;-3.92;44.06
54122;BME280;40029;58.708;50.190;2022-12-10T02:03:49;100782.38;;;-3.71;43.48
54122;BME280;40029;58.708;50.190;2022-12-10T02:06:45;100812.69;;;-3.55;43.54
54122;BME280;40029;58.708;50.190;2022-12-10T02:09:28;100813.34;;;-3.60;44.20
54122;BME280;40029;58.708;50.190;2022-12-10T02:12:23;100822.06;;;-3.54;44.33
54122;BME280;40029;58.708;50.190;2022-12-10T02:17:45;100791.38;;;-3.33;43.97
54122;BME280;40029;58.708;50.190;2022-12-10T02:20:24;100791.59;;;-3.50;43.67
54122;BME280;40029;58.708;50.190;2022-12-10T02:23:01;100785.06;;;-3.44;44.07
54122;BME280;40029;58.708;50.190;2022-12-10T02:31:24;100752.72;;;-3.45;43.68
54122;BME280;40029;58.708;50.190;2022-12-10T02:33:58;100769.66;;;-3.21;43.83
54122;BME280;40029;58.708;50.190;2022-12-10T02:36:35;100778.53;;;-3.10;43.76
54122;BME280;40029;58.708;50.190;2022-12-10T02:39:11;100782.84;;;-3.09;43.21
54122;BME280;40029;58.708;50.190;2022-12-10T02:41:53;100775.47;;;-3.25;43.78
54122;BME280;40029;58.708;50.190;2022-12-10T02:44:27;100775.63;;;-3.46;43.55
54122;BME280;40029;58.708;50.190;2022-12-10T02:46:59;100777.06;;;-3.53;44.00
54122;BME280;40029;58.708;50.190;2022-12-10T02:49:39;100774.94;;;-3.41;44.07
54122;BME280;40029;58.708;50.190;2022-12-10T02:52:15;100775.38;;;-3.29;43.88
54122;BME280;40029;58.708;50.190;2022-12-10T02:54:51;100771.34;;;-3.22;44.07
54122;BME280;40029;58.708;50.190;2022-12-10T03:00:21;100756.66;;;-3.29;43.70
54122;BME280;40029;58.708;50.190;2022-12-10T03:08:34;100755.56;;;-3.61;43.49
54122;BME280;40029;58.708;50.190;2022-12-10T03:11:12;100747.72;;;-3.67;44.19
54122;BME280;40029;58.708;50.190;2022-12-10T03:13:49;100740.78;;;-3.71;43.53
54122;BME280;40029;58.708;50.190;2022-12-10T03:16:21;100736.97;;;-3.83;43.80
54122;BME280;40029;58.708;50.190;2022-12-10T03:18:57;100730.84;;;-3.88;44.34
54122;BME280;40029;58.708;50.190;2022-12-10T03:21:33;100724.09;;;-3.87;44.26
54122;BME280;40029;58.708;50.190;2022-12-10T03:24:12;100704.97;;;-4.00;44.51
54122;BME280;40029;58.708;50.190;2022-12-10T03:26:48;100703.97;;;-4.04;44.50
54122;BME280;40029;58.708;50.190;2022-12-10T03:29:24;100706.22;;;-3.89;44.61
54122;BME280;40029;58.708;50.190;2022-12-10T03:31:58;100707.78;;;-3.92;44.34
54122;BME280;40029;58.708;50.190;2022-12-10T03:34:30;100698.84;;;-4.05;44.47
54122;BME280;40029;58.708;50.190;2022-12-10T03:37:02;100705.91;;;-3.98;44.40
54122;BME280;40029;58.708;50.190;2022-12-10T03:39:33;100715.91;;;-4.03;45.05
54122;BME280;40029;58.708;50.190;2022-12-10T03:42:05;100705.56;;;-4.07;45.09
54122;BME280;40029;58.708;50.190;2022-12-10T03:44:38;100709.84;;;-4.06;45.21
54122;BME280;40029;58.708;50.190;2022-12-10T03:47:13;100711.72;;;-4.00;45.14
54122;BME280;40029;58.708;50.190;2022-12-10T03:49:44;100619.03;;;-4.55;45.12
54122;BME280;40029;58.708;50.190;2022-12-10T03:52:16;100690.03;;;-4.15;45.35
54122;BME280;40029;58.708;50.190;2022-12-10T03:54:47;100702.09;;;-4.09;45.05
54122;BME280;40029;58.708;50.190;2022-12-10T03:57:18;100710.72;;;-4.06;45.48
54122;BME280;40029;58.708;50.190;2022-12-10T03:59:49;100700.69;;;-4.01;45.71
54122;BME280;40029;58.708;50.190;2022-12-10T04:02:20;100699.72;;;-4.05;45.49
54122;BME280;40029;58.708;50.190;2022-12-10T04:04:51;100695.56;;;-4.03;45.72
54122;BME280;40029;58.708;50.190;2022-12-10T04:07:22;100689.16;;;-4.15;45.80
54122;BME280;40029;58.708;50.190;2022-12-10T04:09:53;100697.88;;;-4.09;45.71
54122;BME280;40029;58.708;50.190;2022-12-10T04:12:24;100641.03;;;-4.33;45.42
54122;BME280;40029;58.708;50.190;2022-12-10T04:14:55;100685.09;;;-4.10;45.89
54122;BME280;40029;58.708;50.190;2022-12-10T04:17:44;100686.94;;;-4.06;46.02
54122;BME280;40029;58.708;50.190;2022-12-10T04:20:15;100692.91;;;-4.06;45.43
54122;BME280;40029;58.708;50.190;2022-12-10T04:23:04;100686.16;;;-4.04;45.70
54122;BME280;40029;58.708;50.190;2022-12-10T04:25:54;100610.66;;;-4.53;45.66
54122;BME280;40029;58.708;50.190;2022-12-10T04:28:43;100683.53;;;-4.07;45.60
54122;BME280;40029;58.708;50.190;2022-12-10T04:31:14;100682.28;;;-4.18;46.05
54122;BME280;40029;58.708;50.190;2022-12-10T04:33:45;100682.66;;;-4.07;45.92
54122;BME280;40029;58.708;50.190;2022-12-10T04:36:15;100659.59;;;-4.12;46.21
54122;BME280;40029;58.708;50.190;2022-12-10T04:38:46;100670.72;;;-4.08;46.25
54122;BME280;40029;58.708;50.190;2022-12-10T04:41:17;100667.44;;;-4.06;45.81
54122;BME280;40029;58.708;50.190;2022-12-10T04:43:48;100655.47;;;-4.08;45.92
54122;BME280;40029;58.708;50.190;2022-12-10T04:46:19;100663.38;;;-4.00;46.00
54122;BME280;40029;58.708;50.190;2022-12-10T04:48:50;100638.53;;;-4.08;46.29
54122;BME280;40029;58.708;50.190;2022-12-10T04:51:21;100650.50;;;-4.05;46.03
54122;BME280;40029;58.708;50.190;2022-12-10T04:53:52;100644.34;;;-4.12;46.39
54122;BME280;40029;58.708;50.190;2022-12-10T04:56:23;100653.00;;;-4.07;45.93
54122;BME280;40029;58.708;50.190;2022-12-10T04:58:56;100643.72;;;-4.05;46.21
54122;BME280;40029;58.708;50.190;2022-12-10T05:01:27;100629.97;;;-4.10;46.43
54122;BME280;40029;58.708;50.190;2022-12-10T05:04:00;100641.00;;;-4.09;46.47
54122;BME280;40029;58.708;50.190;2022-12-10T05:06:32;100623.09;;;-4.12;46.54
54122;BME280;40029;58.708;50.190;2022-12-10T05:09:04;100631.22;;;-3.98;46.06
54122;BME280;40029;58.708;50.190;2022-12-10T05:11:36;100577.25;;;-4.38;46.50
54122;BME280;40029;58.708;50.190;2022-12-10T05:14:10;100613.97;;;-4.07;46.45
54122;BME280;40029;58.708;50.190;2022-12-10T05:16:41;100630.41;;;-3.97;46.69
54122;BME280;40029;58.708;50.190;2022-12-10T05:19:13;100563.75;;;-4.37;46.38
54122;BME280;40029;58.708;50.190;2022-12-10T05:21:43;100557.34;;;-4.49;46.63
54122;BME280;40029;58.708;50.190;2022-12-10T05:24:33;100616.69;;;-4.01;46.23
54122;BME280;40029;58.708;50.190;2022-12-10T05:27:05;100614.31;;;-3.96;46.33
54122;BME280;40029;58.708;50.190;2022-12-10T05:29:36;100614.13;;;-4.03;46.00
54122;BME280;40029;58.708;50.190;2022-12-10T05:32:07;100620.00;;;-4.04;46.40
54122;BME280;40029;58.708;50.190;2022-12-10T05:34:38;100610.47;;;-4.09;46.42
54122;BME280;40029;58.708;50.190;2022-12-10T05:37:09;100595.09;;;-4.12;46.85
54122;BME280;40029;58.708;50.190;2022-12-10T05:39:40;100609.88;;;-4.02;46.57
54122;BME280;40029;58.708;50.190;2022-12-10T05:42:10;100611.34;;;-4.09;46.82
54122;BME280;40029;58.708;50.190;2022-12-10T05:44:41;100557.84;;;-4.36;46.77
54122;BME280;40029;58.708;50.190;2022-12-10T05:47:12;100598.13;;;-3.98;46.42
54122;BME280;40029;58.708;50.190;2022-12-10T05:49:43;100596.72;;;-3.90;46.58
54122;BME280;40029;58.708;50.190;2022-12-10T05:52:14;100604.09;;;-3.98;46.56
54122;BME280;40029;58.708;50.190;2022-12-10T05:54:45;100596.22;;;-4.04;46.51
54122;BME280;40029;58.708;50.190;2022-12-10T05:57:16;100597.97;;;-4.03;46.54
54122;BME280;40029;58.708;50.190;2022-12-10T05:59:47;100590.13;;;-4.09;46.77
54122;BME280;40029;58.708;50.190;2022-12-10T06:02:18;100585.25;;;-4.03;46.85
54122;BME280;40029;58.708;50.190;2022-12-10T06:04:49;100539.31;;;-4.32;46.66
54122;BME280;40029;58.708;50.190;2022-12-10T06:07:20;100585.34;;;-4.00;46.68
54122;BME280;40029;58.708;50.190;2022-12-10T06:09:51;100568.56;;;-3.95;46.80
54122;BME280;40029;58.708;50.190;2022-12-10T06:12:22;100567.38;;;-4.05;46.31
54122;BME280;40029;58.708;50.190;2022-12-10T06:14:53;100594.94;;;-3.91;46.62
54122;BME280;40029;58.708;50.190;2022-12-10T06:17:24;100588.19;;;-3.91;46.73
54122;BME280;40029;58.708;50.190;2022-12-10T06:19:55;100590.00;;;-3.87;46.18
54122;BME280;40029;58.708;50.190;2022-12-10T06:22:26;100579.06;;;-3.84;46.35
54122;BME280;40029;58.708;50.190;2022-12-10T06:24:57;100581.03;;;-3.77;46.42
54122;BME280;40029;58.708;50.190;2022-12-10T06:27:30;100569.41;;;-3.69;46.04
54122;BME280;40029;58.708;50.190;2022-12-10T06:30:02;100564.59;;;-3.60;46.44
54122;BME280;40029;58.708;50.190;2022-12-10T06:32:33;100577.00;;;-3.43;45.88
54122;BME280;40029;58.708;50.190;2022-12-10T06:35:05;100578.03;;;-3.37;46.28
54122;BME280;40029;58.708;50.190;2022-12-10T06:37:37;100576.66;;;-3.27;45.51
54122;BME280;40029;58.708;50.190;2022-12-10T06:40:08;100577.75;;;-3.19;45.67
54122;BME280;40029;58.708;50.190;2022-12-10T06:42:39;100521.84;;;-3.41;45.24
54122;BME280;40029;58.708;50.190;2022-12-10T06:45:11;100579.69;;;-3.10;45.28
54122;BME280;40029;58.708;50.190;2022-12-10T06:47:42;100573.81;;;-3.09;45.52
54122;BME280;40029;58.708;50.190;2022-12-10T06:50:13;100572.88;;;-3.11;45.39
54122;BME280;40029;58.708;50.190;2022-12-10T06:52:44;100563.75;;;-3.05;44.97
54122;BME280;40029;58.708;50.190;2022-12-10T06:55:15;100557.06;;;-3.01;45.13
54122;BME280;40029;58.708;50.190;2022-12-10T06:57:46;100558.88;;;-2.97;44.88
54122;BME280;40029;58.708;50.190;2022-12-10T07:00:17;100556.75;;;-3.10;44.80
54122;BME280;40029;58.708;50.190;2022-12-10T07:02:48;100561.13;;;-3.06;45.12
54122;BME280;40029;58.708;50.190;2022-12-10T07:05:19;100555.91;;;-3.11;44.95
54122;BME280;40029;58.708;50.190;2022-12-10T07:07:50;100517.59;;;-3.42;44.43
54122;BME280;40029;58.708;50.190;2022-12-10T07:10:22;100554.72;;;-3.22;44.88
54122;BME280;40029;58.708;50.190;2022-12-10T07:12:53;100553.53;;;-3.33;44.69
54122;BME280;40029;58.708;50.190;2022-12-10T07:15:24;100537.22;;;-3.40;44.66
54122;BME280;40029;58.708;50.190;2022-12-10T07:17:55;100545.75;;;-3.38;44.50
54122;BME280;40029;58.708;50.190;2022-12-10T07:20:26;100535.28;;;-3.47;44.96
54122;BME280;40029;58.708;50.190;2022-12-10T07:22:57;100556.66;;;-3.42;44.96
54122;BME280;40029;58.708;50.190;2022-12-10T07:25:28;100560.91;;;-3.42;44.71
54122;BME280;40029;58.708;50.190;2022-12-10T07:28:00;100542.00;;;-3.49;44.81
54122;BME280;40029;58.708;50.190;2022-12-10T07:30:31;100545.25;;;-3.53;44.60
54122;BME280;40029;58.708;50.190;2022-12-10T07:33:02;100489.47;;;-3.99;44.57
54122;BME280;40029;58.708;50.190;2022-12-10T07:35:33;100548.38;;;-3.89;44.81
54122;BME280;40029;58.708;50.190;2022-12-10T07:38:04;100534.44;;;-4.00;45.26
54122;BME280;40029;58.708;50.190;2022-12-10T07:40:35;100544.13;;;-3.90;45.09
54122;BME280;40029;58.708;50.190;2022-12-10T07:43:06;100549.38;;;-3.84;44.63
54122;BME280;40029;58.708;50.190;2022-12-10T07:45:37;100548.41;;;-3.87;45.22
54122;BME280;40029;58.708;50.190;2022-12-10T07:48:08;100546.28;;;-3.75;44.92
54122;BME280;40029;58.708;50.190;2022-12-10T07:50:40;100548.97;;;-3.70;44.91
54122;BME280;40029;58.708;50.190;2022-12-10T07:53:11;100495.81;;;-3.87;44.49
54122;BME280;40029;58.708;50.190;2022-12-10T07:55:42;100537.63;;;-3.53;44.76
54122;BME280;40029;58.708;50.190;2022-12-10T07:58:12;100536.00;;;-3.51;44.75
54122;BME280;40029;58.708;50.190;2022-12-10T08:00:44;100538.81;;;-3.42;44.93
54122;BME280;40029;58.708;50.190;2022-12-10T08:03:15;100505.09;;;-3.62;44.62
54122;BME280;40029;58.708;50.190;2022-12-10T08:05:46;100508.84;;;-3.50;44.56
54122;BME280;40029;58.708;50.190;2022-12-10T08:08:17;100547.81;;;-3.53;44.76
54122;BME280;40029;58.708;50.190;2022-12-10T08:10:48;100543.81;;;-3.45;44.81
54122;BME280;40029;58.708;50.190;2022-12-10T08:13:19;100537.97;;;-3.42;45.06
54122;BME280;40029;58.708;50.190;2022-12-10T08:15:49;100537.00;;;-3.46;44.83
54122;BME280;40029;58.708;50.190;2022-12-10T08:18:21;100539.75;;;-3.40;45.24
54122;BME280;40029;58.708;50.190;2022-12-10T08:20:51;100492.50;;;-3.57;44.69
54122;BME280;40029;58.708;50.190;2022-12-10T08:23:23;100516.75;;;-3.41;45.02
54122;BME280;40029;58.708;50.190;2022-12-10T08:25:54;100529.56;;;-3.40;44.75
54122;BME280;40029;58.708;50.190;2022-12-10T08:28:25;100539.38;;;-3.52;45.19
54122;BME280;40029;58.708;50.190;2022-12-10T08:30:55;100525.38;;;-3.38;45.22
54122;BME280;40029;58.708;50.190;2022-12-10T08:33:27;100510.84;;;-3.40;44.74
54122;BME280;40029;58.708;50.190;2022-12-10T08:35:58;100527.50;;;-3.23;44.46
54122;BME280;40029;58.708;50.190;2022-12-10T08:38:30;100537.41;;;-3.32;44.79
54122;BME280;40029;58.708;50.190;2022-12-10T08:41:27;100528.25;;;-3.27;44.60
54122;BME280;40029;58.708;50.190;2022-12-10T08:43:58;100539.06;;;-3.34;44.74
54122;BME280;40029;58.708;50.190;2022-12-10T08:46:29;100530.59;;;-3.33;44.83
54122;BME280;40029;58.708;50.190;2022-12-10T08:49:02;100540.56;;;-3.41;44.58
54122;BME280;40029;58.708;50.190;2022-12-10T08:51:34;100539.56;;;-3.46;44.97
54122;BME280;40029;58.708;50.190;2022-12-10T08:54:05;100537.28;;;-3.37;44.73
54122;BME280;40029;58.708;50.190;2022-12-10T08:56:36;100531.28;;;-3.39;44.91
54122;BME280;40029;58.708;50.190;2022-12-10T08:59:07;100540.63;;;-3.39;44.84
54122;BME280;40029;58.708;50.190;2022-12-10T09:01:38;100534.66;;;-3.40;44.90
54122;BME280;40029;58.708;50.190;2022-12-10T09:04:09;100533.91;;;-3.36;44.71
54122;BME280;40029;58.708;50.190;2022-12-10T09:06:40;100537.69;;;-3.23;44.92
54122;BME280;40029;58.708;50.190;2022-12-10T09:09:11;100544.78;;;-3.14;44.86
54122;BME280;40029;58.708;50.190;2022-12-10T09:11:43;100531.06;;;-3.18;44.68
54122;BME280;40029;58.708;50.190;2022-12-10T09:14:16;100536.34;;;-3.12;44.96
54122;BME280;40029;58.708;50.190;2022-12-10T09:16:47;100531.34;;;-3.09;44.76
54122;BME280;40029;58.708;50.190;2022-12-10T09:19:18;100529.69;;;-3.07;44.88
54122;BME280;40029;58.708;50.190;2022-12-10T09:21:49;100524.69;;;-3.04;44.83
54122;BME280;40029;58.708;50.190;2022-12-10T09:24:20;100516.31;;;-2.99;45.06
54122;BME280;40029;58.708;50.190;2022-12-10T09:26:51;100502.00;;;-2.94;44.47
54122;BME280;40029;58.708;50.190;2022-12-10T09:29:22;100505.38;;;-2.95;44.48
54122;BME280;40029;58.708;50.190;2022-12-10T09:31:53;100503.94;;;-2.86;44.31
54122;BME280;40029;58.708;50.190;2022-12-10T09:34:23;100510.84;;;-2.82;44.38
54122;BME280;40029;58.708;50.190;2022-12-10T09:36:54;100447.34;;;-3.04;44.53
54122;BME280;40029;58.708;50.190;2022-12-10T09:39:25;100500.84;;;-2.75;44.54
54122;BME280;40029;58.708;50.190;2022-12-10T09:47:56;100514.47;;;-2.73;44.10
54122;BME280;40029;58.708;50.190;2022-12-10T09:50:38;100510.28;;;-2.71;44.60
54122;BME280;40029;58.708;50.190;2022-12-10T09:53:15;100476.88;;;-3.11;44.53
54122;BME280;40029;58.708;50.190;2022-12-10T09:55:49;100514.84;;;-2.91;44.64
54122;BME280;40029;58.708;50.190;2022-12-10T09:58:23;100526.03;;;-2.86;45.01
54122;BME280;40029;58.708;50.190;2022-12-10T10:01:04;100520.19;;;-2.82;44.45
54122;BME280;40029;58.708;50.190;2022-12-10T10:03:38;100452.19;;;-3.13;44.56
54122;BME280;40029;58.708;50.190;2022-12-10T10:06:12;100508.34;;;-2.80;44.29
54122;BME280;40029;58.708;50.190;2022-12-10T10:08:46;100514.31;;;-2.80;44.50
54122;BME280;40029;58.708;50.190;2022-12-10T10:11:24;100485.69;;;-2.99;44.80
54122;BME280;40029;58.708;50.190;2022-12-10T10:14:11;100520.31;;;-2.78;44.65
54122;BME280;40029;58.708;50.190;2022-12-10T10:16:50;100511.03;;;-2.75;44.67
54122;BME280;40029;58.708;50.190;2022-12-10T10:19:33;100490.44;;;-2.82;44.57
54122;BME280;40029;58.708;50.190;2022-12-10T10:22:08;100508.53;;;-2.72;44.51
54122;BME280;40029;58.708;50.190;2022-12-10T10:24:42;100512.75;;;-2.74;44.29
54122;BME280;40029;58.708;50.190;2022-12-10T10:27:24;100505.00;;;-2.78;44.26
54122;BME280;40029;58.708;50.190;2022-12-10T10:30:02;100507.56;;;-2.78;44.42
54122;BME280;40029;58.708;50.190;2022-12-10T10:35:07;100510.00;;;-2.81;44.87
54122;BME280;40029;58.708;50.190;2022-12-10T10:37:49;100511.78;;;-2.80;44.63
54122;BME280;40029;58.708;50.190;2022-12-10T10:40:33;100515.19;;;-2.79;44.44
54122;BME280;40029;58.708;50.190;2022-12-10T10:43:18;100475.38;;;-3.04;44.64
54122;BME280;40029;58.708;50.190;2022-12-10T10:46:28;100513.41;;;-2.82;44.75
54122;BME280;40029;58.708;50.190;2022-12-10T10:49:32;100513.19;;;-2.89;45.04
54122;BME280;40029;58.708;50.190;2022-12-10T10:52:06;100497.56;;;-3.02;44.72
54122;BME280;40029;58.708;50.190;2022-12-10T10:54:44;100514.75;;;-2.94;44.40
54122;BME280;40029;58.708;50.190;2022-12-10T11:00:04;100497.25;;;-3.12;44.50
54122;BME280;40029;58.708;50.190;2022-12-10T11:02:37;100515.97;;;-3.10;44.82
54122;BME280;40029;58.708;50.190;2022-12-10T11:05:25;100528.72;;;-3.10;44.67
54122;BME280;40029;58.708;50.190;2022-12-10T11:08:02;100541.41;;;-3.13;44.79
54122;BME280;40029;58.708;50.190;2022-12-10T11:10:33;100522.19;;;-3.31;45.24
54122;BME280;40029;58.708;50.190;2022-12-10T11:13:07;100540.31;;;-3.21;45.43
54122;BME280;40029;58.708;50.190;2022-12-10T11:15:59;100530.97;;;-3.21;45.13
54122;BME280;40029;58.708;50.190;2022-12-10T11:18:34;100538.59;;;-3.22;44.96
54122;BME280;40029;58.708;50.190;2022-12-10T11:23:45;100530.88;;;-3.24;45.26
54122;BME280;40029;58.708;50.190;2022-12-10T11:32:19;100538.59;;;-3.22;45.18
54122;BME280;40029;58.708;50.190;2022-12-10T11:35:53;100540.16;;;-3.26;46.00
54122;BME280;40029;58.708;50.190;2022-12-10T11:38:17;100535.84;;;-3.29;45.91
54122;BME280;40029;58.708;50.190;2022-12-10T11:46:35;100538.44;;;-3.27;45.50
54122;BME280;40029;58.708;50.190;2022-12-10T11:49:14;100536.66;;;-3.30;45.77
54122;BME280;40029;58.708;50.190;2022-12-10T12:00:55;100523.72;;;-3.36;46.11
54122;BME280;40029;58.708;50.190;2022-12-10T12:06:56;100518.78;;;-3.31;45.97
54122;BME280;40029;58.708;50.190;2022-12-10T12:15:25;100522.09;;;-3.34;45.92
54122;BME280;40029;58.708;50.190;2022-12-10T12:18:21;100517.81;;;-3.35;46.26
54122;BME280;40029;58.708;50.190;2022-12-10T12:20:57;100521.38;;;-3.30;46.17
54122;BME280;40029;58.708;50.190;2022-12-10T12:23:37;100491.69;;;-3.56;46.30
54122;BME280;40029;58.708;50.190;2022-12-10T12:29:19;100521.09;;;-3.39;46.29
54122;BME280;40029;58.708;50.190;2022-12-10T12:32:13;100540.94;;;-3.29;46.42
54122;BME280;40029;58.708;50.190;2022-12-10T12:34:53;100536.56;;;-3.33;46.49
54122;BME280;40029;58.708;50.190;2022-12-10T12:37:32;100543.44;;;-3.30;46.71
54122;BME280;40029;58.708;50.190;2022-12-10T12:40:34;100534.84;;;-3.34;46.09
54122;BME280;40029;58.708;50.190;2022-12-10T12:43:21;100543.47;;;-3.29;46.48
54122;BME280;40029;58.708;50.190;2022-12-10T12:45:54;100548.56;;;-3.29;46.51
54122;BME280;40029;58.708;50.190;2022-12-10T12:48:39;100542.44;;;-3.35;46.93
54122;BME280;40029;58.708;50.190;2022-12-10T12:51:19;100544.66;;;-3.46;46.68
54122;BME280;40029;58.708;50.190;2022-12-10T12:53:53;100508.28;;;-3.69;46.71
54122;BME280;40029;58.708;50.190;2022-12-10T13:02:00;100522.34;;;-3.53;47.14
54122;BME280;40029;58.708;50.190;2022-12-10T13:04:33;100544.25;;;-3.58;47.31
54122;BME280;40029;58.708;50.190;2022-12-10T13:12:17;100552.84;;;-3.56;47.70
54122;BME280;40029;58.708;50.190;2022-12-10T13:18:18;100557.00;;;-3.58;48.24
54122;BME280;40029;58.708;50.190;2022-12-10T13:20:50;100554.44;;;-3.58;48.05
54122;BME280;40029;58.708;50.190;2022-12-10T13:25:57;100533.50;;;-3.77;48.34
54122;BME280;40029;58.708;50.190;2022-12-10T13:37:02;100552.50;;;-3.40;48.00
54122;BME280;40029;58.708;50.190;2022-12-10T13:45:05;100559.50;;;-3.33;48.06
54122;BME280;40029;58.708;50.190;2022-12-10T13:47:46;100566.50;;;-3.25;48.06
54122;BME280;40029;58.708;50.190;2022-12-10T13:50:18;100565.88;;;-3.18;47.74
54122;BME280;40029;58.708;50.190;2022-12-10T14:07:15;100519.72;;;-3.56;48.29
54122;BME280;40029;58.708;50.190;2022-12-10T14:09:53;100587.28;;;-3.13;47.83
54122;BME280;40029;58.708;50.190;2022-12-10T14:12:34;100583.00;;;-3.14;47.81
54122;BME280;40029;58.708;50.190;2022-12-10T14:15:16;100574.56;;;-3.12;47.84
54122;BME280;40029;58.708;50.190;2022-12-10T14:17:59;100581.38;;;-3.11;48.12
54122;BME280;40029;58.708;50.190;2022-12-10T14:20:32;100571.19;;;-3.11;48.00
54122;BME280;40029;58.708;50.190;2022-12-10T14:23:24;100567.16;;;-3.04;47.49
54122;BME280;40029;58.708;50.190;2022-12-10T14:26:29;100578.53;;;-2.93;47.73
54122;BME280;40029;58.708;50.190;2022-12-10T14:29:19;100579.53;;;-2.88;47.81
54122;BME280;40029;58.708;50.190;2022-12-10T14:31:50;100585.38;;;-2.92;47.94
54122;BME280;40029;58.708;50.190;2022-12-10T14:34:25;100576.13;;;-2.88;47.91
54122;BME280;40029;58.708;50.190;2022-12-10T14:37:00;100560.53;;;-2.97;48.07
54122;BME280;40029;58.708;50.190;2022-12-10T14:39:33;100561.56;;;-2.92;47.70
54122;BME280;40029;58.708;50.190;2022-12-10T14:42:05;100573.84;;;-2.79;47.71
54122;BME280;40029;58.708;50.190;2022-12-10T14:44:39;100573.69;;;-2.84;47.91
54122;BME280;40029;58.708;50.190;2022-12-10T14:47:14;100578.97;;;-2.78;47.64
54122;BME280;40029;58.708;50.190;2022-12-10T14:49:48;100529.75;;;-3.05;47.73
54122;BME280;40029;58.708;50.190;2022-12-10T14:52:24;100573.13;;;-2.73;47.37
54122;BME280;40029;58.708;50.190;2022-12-10T14:55:03;100567.06;;;-2.77;47.74
54122;BME280;40029;58.708;50.190;2022-12-10T14:57:38;100581.72;;;-2.71;47.46
54122;BME280;40029;58.708;50.190;2022-12-10T15:00:20;100574.69;;;-2.79;47.61
54122;BME280;40029;58.708;50.190;2022-12-10T15:02:57;100560.97;;;-2.84;47.54
54122;BME280;40029;58.708;50.190;2022-12-10T15:05:30;100516.19;;;-3.03;47.89
54122;BME280;40029;58.708;50.190;2022-12-10T15:08:05;100540.44;;;-2.88;47.76
54122;BME280;40029;58.708;50.190;2022-12-10T15:10:45;100498.97;;;-3.11;47.46